AKDT,Max TemperatureF,Mean TemperatureF,Min TemperatureF,Max Dew PointF,MeanDew PointF,Min DewpointF,Max Humidity, Mean Humidity, Min Humidity, Max Sea Level PressureIn, Mean Sea Level PressureIn, Min Sea Level PressureIn, Max VisibilityMiles, Mean VisibilityMiles, Min VisibilityMiles, Max Wind SpeedMPH, Mean Wind SpeedMPH, Max Gust SpeedMPH,PrecipitationIn, CloudCover, Events, WindDirDegrees
2013-9-1,72,61,50,57,55,52,0,0,0,29.91,29.87,29.86,10,8,0,12,5,15,0.00,2,Fog,320
2013-9-2,71,61,50,61,55,50,0,0,0,29.99,29.93,29.87,10,4,0,7,1,9,0.00,4,Fog,188
2013-9-3,72,62,51,61,55,51,0,0,0,30.01,29.99,29.95,10,5,0,7,2,9,0.00,2,Fog,191
2013-9-4,59,56,53,58,56,52,0,0,0,30.14,30.08,29.99,10,8,2,9,4,14,0.06,7,Rain,147
2013-9-5,67,62,56,61,58,56,0,0,0,30.22,30.18,30.13,10,7,1,9,5,12,0.04,7,Rain,156
2013-9-6,75,65,54,59,57,54,0,0,0,30.20,30.16,30.11,10,10,10,10,5,13,0.00,1,,313
2013-9-7,70,62,53,58,56,53,0,0,0,30.13,30.05,29.97,10,10,10,16,4,20,0.00,1,,151
2013-9-8,67,59,50,58,55,50,0,0,0,30.15,30.07,29.95,10,9,3,15,5,20,0.45,4,Rain,196
2013-9-9,64,57,49,54,51,49,0,0,0,30.17,30.15,30.12,10,10,10,7,2,10,0.00,4,,328
2013-9-10,68,57,46,57,51,46,0,0,0,30.12,30.10,30.07,10,8,2,7,1,8,0.00,4,,310
2013-9-11,78,65,51,59,55,50,0,0,0,30.06,30.00,29.94,10,10,10,8,5,12,0.00,1,,314
2013-9-12,70,63,55,59,57,54,0,0,0,30.04,30.01,29.96,10,10,10,10,5,15,0.00,3,,320
2013-9-13,71,61,51,58,54,51,0,0,0,30.05,30.00,29.91,10,9,2,14,7,18,0.00,0,,325
2013-9-14,72,61,50,57,53,50,0,0,0,29.90,29.85,29.76,10,10,10,8,1,10,0.00,0,,295
2013-9-15,68,58,47,57,50,46,0,0,0,29.76,29.71,29.62,10,4,0,13,3,18,0.05,3,Fog,151
2013-9-16,59,56,53,55,54,51,0,0,0,29.79,29.72,29.68,10,10,7,17,6,29,0.11,7,Rain,146
2013-9-17,60,57,54,54,52,49,0,0,0,29.83,29.80,29.77,10,10,4,13,7,20,0.02,7,Rain,141
2013-9-18,60,55,49,54,51,49,0,0,0,29.89,29.83,29.69,10,10,7,13,6,16,0.00,7,Rain,127
2013-9-19,58,56,53,54,52,48,0,0,0,29.62,29.34,29.18,10,8,3,35,21,52,1.41,8,Rain,126
2013-9-20,59,57,55,54,53,50,0,0,0,29.54,29.41,29.21,10,9,2,37,20,56,0.11,8,Rain,149
2013-9-21,56,54,51,52,49,45,0,0,0,29.53,29.38,29.11,10,9,7,18,9,29,0.02,8,Rain,140
2013-9-22,54,52,50,53,50,46,0,0,0,29.28,29.12,29.04,10,8,2,28,16,36,0.80,8,Rain,136
2013-9-23,52,50,48,49,47,45,0,0,0,29.71,29.48,29.29,10,9,2,15,7,21,0.58,7,Rain,138
2013-9-24,57,49,41,50,45,41,0,0,0,30.09,29.92,29.73,10,10,7,13,3,16,0.08,4,Rain,120
2013-9-25,61,51,40,49,45,40,0,0,0,30.18,30.15,30.11,10,10,9,8,3,12,0.00,1,,315
2013-9-26,52,49,46,54,49,46,0,0,0,30.11,29.94,29.84,10,7,1,20,8,26,0.83,8,Rain,138
2013-9-27,54,52,50,50,48,46,0,0,0,29.82,29.51,29.16,10,8,2,20,10,28,0.13,8,Rain,158
2013-9-28,53,50,47,46,44,41,0,0,0,29.12,28.97,28.86,10,10,9,28,16,40,0.37,8,Rain,119
2013-9-29,51,49,46,49,46,42,0,0,0,29.11,28.98,28.83,10,9,2,16,8,28,0.16,8,Rain,115
2013-9-30,50,45,40,47,45,41,0,0,0,29.56,29.32,29.11,10,10,10,10,2,14,0.08,6,Rain,357